Terminal Aerodrome Forecast
Issued by NWS Springfield, MO

Current Version | Previous Version | Text Only | Print | Product List | Glossary On
Versions: 1 2 3 4 5 6 7 8 9 10 11 12 13 14
539
FTUS43 KSGF 121720
TAFSGF
TAF
KSGF 121720Z 1218/1318 35012G18KT P6SM FEW200
     FM130100 36009KT P6SM SCT250
     FM131000 04008KT P6SM BKN100
     FM131700 09007KT P6SM BKN120=

USA.gov is the U.S. government's official web portal to all federal, state and local government web resources and services.